CheckWX is a tool to help pilots better visualize weather data.  It is not intended as a substitute for an official pre-flight weather briefing.

15:47:43 UTC

KROG METAR
Rogers Executive - Carter Field Airport
Rogers, Arkansas, USA
Current

50 mins ago

KROG 261458Z 21014G22KT 10SM FEW080 25/19 A3014 RMK AO2 SLP190 6//// T02500189 51017 PNO $
Observed
May-26 @ 14:58 UTC
Wind
  • 210° at 14 KTS
  • Gusting to 22 KTS
Visibility
10 SM
Flight Rules
VFR
Cloud Levels
  • Few at 8,000' AGL
Temperature
25°C / 77°F
Dewpoint
19°C / 66°F
Humidity
69%
Altimeter
30.14" Hg
Pressure
1020.62 hPa
Previous

2 hours ago

KROG 261358Z 21009KT 10SM SCT090 23/18 A3012 RMK AO2 SLP186 T02330183 PNO $
Observed
May-26 @ 13:58 UTC
Wind
  • 210° at 9 KTS
Visibility
10 SM
Flight Rules
VFR
Cloud Levels
  • Scattered at 9,000' AGL
Temperature
23°C / 73°F
Dewpoint
18°C / 64°F
Humidity
74%
Altimeter
30.12" Hg
Pressure
1020.02 hPa
Previous

3 hours ago

KROG 261258Z AUTO 23003KT 10SM CLR 21/18 A3010 RMK AO2 SLP180 T02060178 PNO $
Observed
May-26 @ 12:58 UTC
Wind
  • 230° at 3 KTS
Visibility
10 SM
Flight Rules
VFR
Cloud Levels
  • Clear skies
Temperature
21°C / 70°F
Dewpoint
18°C / 64°F
Humidity
83%
Altimeter
30.1" Hg
Pressure
1019.32 hPa